Flight Track Log - Related Links

Times and Time Zones

All times are in EDT time to prevent confusion due to time zone crossing. See the AFR1048 flight status page for this flight to view local times or setup timezone preferences in your user account.

Time Position Orientation Groundspeed Altitude Reporting Facility
EDT Latitude Longitude Course Direction KTS MPH feet Rate Location/Type
Tue 11:02:00 AM 48.2258 2.4956 183° South  Level Estimated
Tue 11:03:00 AM 48.1471 2.4902 183° South  Level Estimated
Tue 11:04:00 AM 48.0684 2.4849 183° South  Level Estimated
Tue 11:05:00 AM 47.9897 2.4796 183° South  Level Estimated
Tue 11:06:00 AM 47.9110 2.4743 183° South  Level Estimated
Tue 11:07:00 AM 47.8323 2.4690 183° South  Level Estimated
Tue 11:08:00 AM 47.7536 2.4637 183° South  Level Estimated
Tue 11:09:00 AM 47.6749 2.4585 183° South  Level Estimated
Tue 11:10:00 AM 47.5962 2.4532 183° South  Level Estimated
Tue 11:11:00 AM 47.5175 2.4480 183° South  Level Estimated
Tue 11:12:00 AM 47.4388 2.4428 183° South  Level Estimated
Tue 11:13:00 AM 47.3601 2.4376 183° South  Level Estimated
Tue 11:14:00 AM 47.2814 2.4325 183° South  Level Estimated
Tue 11:15:00 AM 47.2027 2.4273 183° South  Level Estimated
Tue 11:16:00 AM 47.1240 2.4222 183° South  Level Estimated
Tue 11:17:00 AM 47.0453 2.4170 183° South  Level Estimated
Tue 11:18:00 AM 46.9666 2.4119 183° South  Level Estimated
Tue 11:19:00 AM 46.8879 2.4068 183° South  Level Estimated
Tue 11:20:00 AM 46.8092 2.4018 183° South  Level Estimated
Tue 11:21:00 AM 46.7305 2.3967 183° South  Level Estimated
Tue 11:22:00 AM 46.6518 2.3916 183° South  Level Estimated
Tue 11:23:00 AM 46.5731 2.3866 183° South  Level Estimated
Tue 11:24:00 AM 46.4944 2.3816 183° South  Level Estimated
Tue 11:25:00 AM 46.4157 2.3766 183° South  Level Estimated
Tue 11:26:00 AM 46.3370 2.3716 183° South  Level Estimated
Tue 11:27:00 AM 46.2583 2.3666 183° South  Level Estimated
Tue 11:28:00 AM 46.1726 2.3612 183° South  Level Estimated
Tue 11:29:00 AM 46.0869 2.3558 182° South  Level Estimated
Tue 11:30:00 AM 46.0012 2.3504 182° South  Level Estimated
Tue 11:31:00 AM 45.9155 2.3451 182° South  Level Estimated
Tue 11:32:00 AM 45.8298 2.3397 182° South  Level Estimated
Tue 11:33:00 AM 45.7441 2.3344 182° South  Level Estimated
Tue 11:34:00 AM 45.6584 2.3291 182° South  Level Estimated
Tue 11:35:00 AM 45.5727 2.3238 182° South  Level Estimated
Tue 11:36:00 AM 45.4870 2.3185 182° South  Level Estimated
Tue 11:37:00 AM 45.4013 2.3133 182° South  Level Estimated
Tue 11:38:00 AM 45.3156 2.3080 182° South  Level Estimated
Tue 11:39:00 AM 45.2299 2.3028 182° South  Level Estimated
Tue 11:40:00 AM 45.1442 2.2976 182° South  Level Estimated
Tue 11:41:00 AM 45.0585 2.2924 182° South  Level Estimated
Tue 11:42:00 AM 44.9728 2.2872 182° South  Level Estimated
Tue 11:43:00 AM 44.8871 2.2820 182° South  Level Estimated
Tue 11:44:00 AM 44.8014 2.2769 182° South  Level Estimated
Tue 11:45:00 AM 44.7157 2.2718 182° South  Level Estimated
Tue 11:46:00 AM 44.6300 2.2666 182° South  Level Estimated
Tue 11:47:00 AM 44.5443 2.2615 182° South  Level Estimated
Tue 11:48:00 AM 44.4586 2.2564 182° South  Level Estimated
Tue 11:49:00 AM 44.3729 2.2514 182° South  Level Estimated
Tue 11:50:00 AM 44.2872 2.2463 182° South  Level Estimated
Tue 11:51:00 AM 44.2015 2.2413 182° South  Level Estimated
Tue 11:52:00 AM 44.1157 2.2362 182° South  Level Estimated
Tue 11:53:00 AM 44.0300 2.2312 182° South  Level Estimated
Tue 11:54:00 AM 43.9443 2.2262 182° South  Level Estimated
Tue 11:55:00 AM 43.8586 2.2212 182° South  Level Estimated
Tue 11:56:00 AM 43.7729 2.2163 182° South  Level Estimated
Tue 11:57:00 AM 43.6872 2.2113 182° South  Level Estimated
Tue 11:58:00 AM 43.6015 2.2064 182° South  Level Estimated
Tue 11:59:00 AM 43.5158 2.2014 182° South  Level Estimated
Tue 12:00:00 PM 43.4301 2.1965 182° South  Level Estimated
Tue 12:01:00 PM 43.3443 2.1916 182° South  Level Estimated
Tue 12:02:00 PM 43.2586 2.1867 182° South  Level Estimated
Tue 12:03:00 PM 43.1729 2.1819 182° South  Level Estimated
Tue 12:04:00 PM 43.0872 2.1770 182° South  Level Estimated
Tue 12:05:00 PM 43.0015 2.1721 182° South  Level Estimated
Tue 12:06:00 PM 42.9158 2.1673 182° South  Level Estimated
Tue 12:07:00 PM 42.8301 2.1625 182° South  Level Estimated
Tue 12:08:00 PM 42.7444 2.1577 182° South  Level Estimated
Tue 12:09:00 PM 42.6587 2.1529 182° South  Level Estimated
Tue 12:10:00 PM 42.5730 2.1481 182° South  Level Estimated
Tue 12:11:00 PM 42.4873 2.1433 182° South  Level Estimated
Tue 12:12:00 PM 42.4015 2.1386 182° South  Level Estimated
Tue 12:13:00 PM 42.3129 2.1337 182° South  Level Estimated
Tue 12:14:00 PM 42.2242 2.1288 182° South  Level Estimated
Tue 12:15:00 PM 42.1355 2.1239 182° South  Level Estimated
Tue 12:16:00 PM 42.0469 2.1191 182° South  Level Estimated
Tue 12:17:00 PM 41.9582 2.1142 182° South  Level Estimated
Tue 12:18:00 PM 41.8695 2.1094 182° South  Level Estimated
Tue 12:19:00 PM 41.7808 2.1045 182° South  Level Estimated
Tue 12:20:00 PM 41.6922 2.0997 182° South  Level Estimated
Tue 12:21:00 PM 41.6035 2.0949 182° South  Level Estimated
Tue 12:22:00 PM 41.5148 2.0902 182° South  Level Estimated
Tue 12:23:00 PM 41.4262 2.0854 182° South  Level Estimated
Tue 12:24:00 PM 41.3375 2.0806 182° South  Level Estimated
Tue 12:25:00 PM 41.2971 2.0785 182° South  Level Estimated
Tue 12:26:00 PM 41.2971 2.0785 124° Southeast  Level Estimated
Tue 12:27:00 PM 41.2971 2.0785 124° Southeast  Level Estimated
Tue 12:28:00 PM 41.2971 2.0785 124° Southeast  Level Estimated
Tue 12:29:00 PM 41.2971 2.0785 124° Southeast  Level Estimated
Tue 12:30:00 PM 41.2971 2.0785 124° Southeast  Level Estimated
Tue 12:31:00 PM 41.2971 2.0785 124° Southeast  Level Estimated
Tue 12:32:00 PM 41.2971 2.0785 124° Southeast  Level Estimated

Login

Don't have an account? Register now (free) for customized features, flight alerts, and more!